Accueil
METAR-TAF:

METAR-TAF

Aéroports :

Aéroport de Milan-Linate

Milan, Italie

latitude: 45-26N, longitude: 009-17E, altitude: 107 m

Observation

Le bulletin a été fait il y a 23 minutes, à 14:50 UTC
Vent 6 kt de ouest
Température 7°C
Humidité 66%
Pression 1024 hPa
Visibilité 10 km ou plus

METAR: LIML 221450Z AUTO 26006KT 9999 NCD 07/01 Q1024

Heure: 16:13 (15:13 UTC)

Prévision

Le bulletin a été fait il y a 1 heure et 48 minutes, à 13:25 UTC
Prévision valable du 22 à 13 UTC au 23 à 12 UTC
Vent 6 kt de ouest/sud-ouest
Visibilité: 8000 m
Evoluant progressivement
du 22 à 18 UTC au 22 à 20 UTC
Visibilité: 3000 m
brume
Temporairement
du 22 à 23 UTC au 23 à 06 UTC
Visibilité: 1200 m
bancs de brouillard

TAF: LIML 221325Z 2213/2312 25006KT 8000 NSC BECMG 2218/2220 3000 BR TEMPO 2223/2306 1200 BCFG

Observations et prévisions météorologiques de plus de 4000 aéroports (messages METAR et TAF).

Les stations disponibles sont représentées par des disques jaunes et rouges sur la carte.

Passer la souris dessus pour voir le nom de la station.

Cliquer dessus pour voir les observations et prévisions météorologiques.

Pour changer de carte: cliquez sur les boutons verts avec une croix noire pour zoomer, sur le bouton vert avec un tiret pour effectuer un zoom arrière, ou sur les flèches vertes pour les cartes adjacentes.


METAR-TAF: